createdAt,value
2022-10-23T00:00:02.492Z,60.77
2022-10-23T00:01:04.371Z,60.79
2022-10-23T00:02:06.294Z,60.78
2022-10-23T00:03:08.152Z,60.79
2022-10-23T00:04:09.986Z,60.77
2022-10-23T00:05:12.328Z,60.77
2022-10-23T00:06:16.009Z,60.76
2022-10-23T00:07:17.851Z,60.73
2022-10-23T00:08:19.674Z,60.73
2022-10-23T00:09:21.484Z,60.72
2022-10-23T00:10:23.308Z,60.66
2022-10-23T00:11:25.278Z,60.67
2022-10-23T00:12:27.109Z,60.67
2022-10-23T00:13:28.916Z,60.63
2022-10-23T00:14:30.745Z,60.63
2022-10-23T00:15:32.564Z,60.68
2022-10-23T00:16:34.433Z,60.74
2022-10-23T00:17:36.595Z,60.75
2022-10-23T00:18:38.418Z,60.75
2022-10-23T00:19:40.861Z,60.80
2022-10-23T00:20:42.686Z,60.83
2022-10-23T00:21:44.560Z,60.85
2022-10-23T00:22:46.399Z,60.91
2022-10-23T00:23:48.215Z,60.95
2022-10-23T00:24:50.037Z,60.92
2022-10-23T00:25:51.870Z,60.84
2022-10-23T00:26:53.748Z,60.83
2022-10-23T00:27:55.583Z,60.84
2022-10-23T00:28:57.407Z,60.87
2022-10-23T00:29:59.230Z,60.86
2022-10-23T00:31:01.067Z,60.86
2022-10-23T00:32:02.927Z,60.86
2022-10-23T00:33:04.772Z,60.92
2022-10-23T00:34:06.575Z,60.94
2022-10-23T00:35:08.400Z,60.98
2022-10-23T00:36:10.530Z,60.95
2022-10-23T00:37:12.394Z,60.92
2022-10-23T00:38:14.224Z,60.97
2022-10-23T00:39:16.058Z,60.97
2022-10-23T00:40:19.103Z,60.94
2022-10-23T00:41:20.929Z,60.98
2022-10-23T00:42:22.815Z,61.04
2022-10-23T00:43:24.646Z,60.99
2022-10-23T00:44:26.457Z,60.97
2022-10-23T00:45:28.277Z,60.94
2022-10-23T00:46:30.107Z,60.91
2022-10-23T00:47:31.986Z,60.90
2022-10-23T00:48:33.846Z,60.91
2022-10-23T00:49:37.443Z,60.90
2022-10-23T00:50:39.297Z,60.88
2022-10-23T00:51:41.124Z,60.83
2022-10-23T00:52:43.386Z,60.97
2022-10-23T00:53:48.000Z,60.73
2022-10-23T00:54:49.102Z,60.71
2022-10-23T00:55:50.924Z,60.64
2022-10-23T00:56:52.736Z,60.64
2022-10-23T00:57:54.613Z,60.67
2022-10-23T00:58:56.445Z,60.65
2022-10-23T00:59:58.294Z,60.63
2022-10-23T01:01:00.186Z,60.62
2022-10-23T01:02:02.149Z,60.58
2022-10-23T01:03:04.111Z,60.56
2022-10-23T01:04:06.179Z,60.53
2022-10-23T01:05:08.007Z,60.50
2022-10-23T01:06:10.646Z,60.46
2022-10-23T01:07:12.495Z,60.29
2022-10-23T01:08:14.375Z,60.29
2022-10-23T01:09:16.210Z,60.41
2022-10-23T01:10:19.880Z,60.41
2022-10-23T01:11:21.690Z,60.36
2022-10-23T01:12:23.515Z,60.37
2022-10-23T01:13:25.374Z,60.33
2022-10-23T01:14:27.194Z,60.26
2022-10-23T01:15:29.021Z,60.23
2022-10-23T01:16:30.855Z,60.19
2022-10-23T01:17:32.683Z,60.18
2022-10-23T01:18:34.536Z,60.13
2022-10-23T01:19:36.372Z,60.09
2022-10-23T01:20:38.210Z,60.03
2022-10-23T01:21:40.053Z,59.83
2022-10-23T01:22:42.110Z,59.83
2022-10-23T01:23:44.273Z,59.88
2022-10-23T01:24:46.094Z,59.83
2022-10-23T01:25:47.914Z,59.81
2022-10-23T01:26:49.760Z,59.79
2022-10-23T01:27:51.596Z,59.75
2022-10-23T01:28:53.679Z,59.71
2022-10-23T01:29:55.509Z,59.70
2022-10-23T01:30:57.552Z,59.67
2022-10-23T01:31:59.368Z,59.64
2022-10-23T01:33:01.196Z,59.59
2022-10-23T01:34:03.073Z,59.58
2022-10-23T01:35:05.066Z,59.53
2022-10-23T01:36:07.098Z,59.50
2022-10-23T01:37:08.930Z,59.48
2022-10-23T01:38:10.792Z,59.45
2022-10-23T01:39:12.665Z,59.44
2022-10-23T01:40:16.313Z,59.41
2022-10-23T01:41:18.143Z,59.39
2022-10-23T01:42:19.974Z,59.39
2022-10-23T01:43:21.808Z,59.37
2022-10-23T01:44:23.674Z,59.34
2022-10-23T01:45:25.495Z,59.37
2022-10-23T01:46:27.309Z,59.35
2022-10-23T01:47:29.138Z,59.30
2022-10-23T01:48:30.971Z,59.31
2022-10-23T01:49:32.828Z,59.29
2022-10-23T01:50:34.809Z,59.31
2022-10-23T01:51:36.644Z,59.30
2022-10-23T01:52:38.472Z,59.29
2022-10-23T01:53:40.289Z,59.25
2022-10-23T01:54:42.150Z,59.23
2022-10-23T01:55:43.968Z,59.23
2022-10-23T01:56:45.808Z,59.22
2022-10-23T01:57:47.634Z,59.22
2022-10-23T01:58:49.456Z,59.25
2022-10-23T01:59:51.323Z,59.26
2022-10-23T02:00:53.166Z,59.25
2022-10-23T02:01:55.076Z,59.24
2022-10-23T02:02:56.932Z,59.23
2022-10-23T02:05:00.514Z,59.21
2022-10-23T02:06:02.405Z,59.22
2022-10-23T02:07:04.201Z,59.24
2022-10-23T02:08:05.999Z,59.22
2022-10-23T02:09:07.824Z,59.19
2022-10-23T02:10:10.084Z,59.18
2022-10-23T02:11:11.871Z,59.15
2022-10-23T02:12:13.755Z,59.13
2022-10-23T02:13:15.601Z,59.13
2022-10-23T02:14:17.393Z,59.13
2022-10-23T02:15:19.255Z,59.10
2022-10-23T02:16:21.063Z,59.11
2022-10-23T02:17:22.877Z,59.12
2022-10-23T02:18:24.667Z,59.12
2022-10-23T02:19:26.489Z,59.12
2022-10-23T02:20:28.318Z,59.11
2022-10-23T02:21:30.150Z,59.08
2022-10-23T02:22:31.965Z,59.08
2022-10-23T02:23:33.758Z,59.15
2022-10-23T02:24:35.556Z,59.17
2022-10-23T02:25:37.417Z,59.18
2022-10-23T02:26:39.235Z,59.16
2022-10-23T02:27:41.026Z,59.20
2022-10-23T02:28:42.830Z,59.23
2022-10-23T02:29:44.544Z,59.27
2022-10-23T02:30:46.491Z,59.27
2022-10-23T02:31:48.306Z,59.28
2022-10-23T02:32:50.110Z,59.26
2022-10-23T02:33:51.896Z,59.34
2022-10-23T02:34:53.594Z,59.36
2022-10-23T02:35:55.453Z,59.36
2022-10-23T02:36:57.358Z,59.35
2022-10-23T02:37:59.146Z,59.31
2022-10-23T02:39:00.853Z,59.38
2022-10-23T02:40:02.557Z,59.38
2022-10-23T02:41:04.418Z,59.40
2022-10-23T02:42:06.222Z,59.40
2022-10-23T02:43:08.021Z,59.44
2022-10-23T02:44:09.834Z,59.45
2022-10-23T02:45:11.639Z,59.47
2022-10-23T02:46:13.893Z,59.44
2022-10-23T02:47:15.700Z,59.43
2022-10-23T02:48:17.494Z,59.41
2022-10-23T02:49:19.303Z,59.38
2022-10-23T02:50:21.013Z,59.37
2022-10-23T02:51:22.849Z,59.39
2022-10-23T02:52:24.645Z,59.41
2022-10-23T02:53:26.451Z,59.42
2022-10-23T02:54:28.267Z,59.40
2022-10-23T02:55:30.066Z,59.39
2022-10-23T02:56:33.490Z,59.39
2022-10-23T02:57:35.537Z,59.39
2022-10-23T02:58:37.326Z,59.37
2022-10-23T02:59:39.146Z,59.39
2022-10-23T03:00:40.964Z,59.42
2022-10-23T03:01:42.889Z,59.42
2022-10-23T03:02:44.720Z,59.41
2022-10-23T03:03:46.529Z,59.40
2022-10-23T03:04:48.815Z,59.43
2022-10-23T03:05:50.630Z,59.44
2022-10-23T03:06:52.489Z,59.42
2022-10-23T03:07:54.387Z,59.44
2022-10-23T03:08:56.278Z,59.42
2022-10-23T03:09:58.081Z,59.44
2022-10-23T03:10:59.903Z,59.47
2022-10-23T03:12:01.768Z,59.50
2022-10-23T03:13:03.561Z,59.50
2022-10-23T03:14:05.369Z,59.46
2022-10-23T03:15:07.181Z,59.49
2022-10-23T03:16:09.290Z,59.55
2022-10-23T03:17:11.125Z,59.55
2022-10-23T03:18:12.930Z,59.55
2022-10-23T03:19:14.751Z,59.57
2022-10-23T03:20:16.549Z,59.56
2022-10-23T03:21:18.364Z,59.54
2022-10-23T03:22:20.198Z,59.53
2022-10-23T03:23:22.020Z,59.54
2022-10-23T03:24:23.822Z,59.54
2022-10-23T03:25:25.634Z,59.51
2022-10-23T03:26:27.431Z,59.51
2022-10-23T03:28:30.976Z,59.44
2022-10-23T03:29:32.815Z,59.45
2022-10-23T03:30:34.576Z,59.44
2022-10-23T03:31:36.396Z,59.41
2022-10-23T03:32:38.241Z,59.37
2022-10-23T03:33:40.053Z,59.34
2022-10-23T03:34:41.861Z,59.34
2022-10-23T03:35:43.726Z,59.35
2022-10-23T03:36:45.501Z,59.40
2022-10-23T03:37:47.346Z,59.37
2022-10-23T03:38:49.186Z,59.37
2022-10-23T03:39:50.983Z,59.36
2022-10-23T03:40:52.776Z,59.36
2022-10-23T03:41:54.586Z,59.36
2022-10-23T03:42:56.455Z,59.31
2022-10-23T03:43:58.315Z,59.34
2022-10-23T03:45:00.162Z,59.34
2022-10-23T03:46:01.951Z,59.28
2022-10-23T03:47:03.769Z,59.28
2022-10-23T03:48:05.614Z,59.23
2022-10-23T03:49:07.411Z,59.21
2022-10-23T03:50:09.839Z,59.24
2022-10-23T03:51:11.647Z,59.21
2022-10-23T03:52:13.516Z,59.22
2022-10-23T03:53:15.393Z,59.26
2022-10-23T03:54:17.282Z,59.26
2022-10-23T03:55:19.074Z,59.26
2022-10-23T03:56:20.886Z,59.22
2022-10-23T03:57:22.695Z,59.21
2022-10-23T03:58:24.558Z,59.22
2022-10-23T03:59:26.363Z,59.19
2022-10-23T04:00:28.164Z,59.18
2022-10-23T04:01:30.036Z,59.18
2022-10-23T04:02:32.042Z,59.25
2022-10-23T04:03:33.825Z,59.24
2022-10-23T04:04:35.616Z,59.21
2022-10-23T04:05:37.479Z,59.22
2022-10-23T04:06:39.256Z,59.18
2022-10-23T04:07:41.170Z,59.19
2022-10-23T04:08:43.005Z,59.15
2022-10-23T04:09:44.825Z,59.22
2022-10-23T04:10:46.669Z,59.28
2022-10-23T04:11:48.439Z,59.36
2022-10-23T04:12:50.263Z,59.47
2022-10-23T04:13:52.112Z,59.52
2022-10-23T04:14:53.900Z,59.56
2022-10-23T04:15:55.708Z,59.62
2022-10-23T04:16:57.421Z,59.69
2022-10-23T04:17:59.249Z,59.71
2022-10-23T04:19:01.100Z,59.71
2022-10-23T04:20:02.927Z,59.75
2022-10-23T04:21:04.743Z,59.78
2022-10-23T04:22:06.578Z,59.88
2022-10-23T04:23:08.409Z,59.89
2022-10-23T04:24:10.278Z,59.92
2022-10-23T04:25:12.124Z,59.96
2022-10-23T04:26:14.181Z,60.04
2022-10-23T04:27:15.992Z,60.04
2022-10-23T04:28:17.807Z,60.09
2022-10-23T04:29:19.680Z,60.13
2022-10-23T04:30:21.606Z,60.15
2022-10-23T04:31:23.430Z,60.18
2022-10-23T04:32:25.268Z,60.18
2022-10-23T04:33:27.065Z,60.22
2022-10-23T04:34:28.938Z,60.27
2022-10-23T04:35:30.773Z,60.29
2022-10-23T04:36:32.579Z,60.25
2022-10-23T04:37:34.393Z,60.22
2022-10-23T04:38:36.204Z,60.24
2022-10-23T04:39:38.065Z,60.25
2022-10-23T04:40:40.021Z,60.31
2022-10-23T04:41:41.846Z,60.32
2022-10-23T04:42:44.021Z,60.31
2022-10-23T04:43:46.197Z,60.36
2022-10-23T04:44:48.079Z,60.38
2022-10-23T04:45:49.991Z,60.40
2022-10-23T04:46:51.908Z,60.42
2022-10-23T04:47:53.744Z,60.45
2022-10-23T04:48:55.577Z,60.46
2022-10-23T04:49:57.431Z,60.50
2022-10-23T04:50:59.346Z,60.50
2022-10-23T04:52:01.173Z,60.51
2022-10-23T04:53:03.013Z,60.51
2022-10-23T04:54:04.855Z,60.56
2022-10-23T04:55:06.717Z,60.63
2022-10-23T04:56:09.075Z,60.61
2022-10-23T04:57:10.898Z,60.60
2022-10-23T04:58:12.729Z,60.57
2022-10-23T04:59:14.561Z,60.55
2022-10-23T05:00:16.452Z,60.53
2022-10-23T05:01:18.354Z,60.48
2022-10-23T05:02:20.414Z,60.56
2022-10-23T05:03:22.251Z,60.62
2022-10-23T05:04:24.096Z,60.67
2022-10-23T05:05:25.960Z,60.72
2022-10-23T05:06:27.881Z,60.72
2022-10-23T05:07:29.717Z,60.74
2022-10-23T05:08:31.545Z,60.83
2022-10-23T05:09:33.370Z,60.83
2022-10-23T05:10:35.315Z,60.83
2022-10-23T05:11:37.174Z,60.88
2022-10-23T05:12:38.992Z,60.97
2022-10-23T05:13:40.816Z,61.00
2022-10-23T05:14:42.649Z,61.04
2022-10-23T05:15:44.540Z,61.12
2022-10-23T05:16:46.459Z,61.14
2022-10-23T05:17:48.288Z,61.16
2022-10-23T05:18:50.099Z,61.23
2022-10-23T05:19:51.945Z,61.27
2022-10-23T05:20:54.219Z,61.31
2022-10-23T05:21:56.099Z,61.37
2022-10-23T05:22:57.999Z,61.41
2022-10-23T05:25:02.710Z,61.49
2022-10-23T05:26:04.688Z,61.50
2022-10-23T05:27:06.549Z,61.53
2022-10-23T05:28:08.508Z,61.52
2022-10-23T05:29:10.356Z,61.53
2022-10-23T05:30:12.997Z,61.54
2022-10-23T05:31:14.878Z,61.53
2022-10-23T05:32:16.763Z,61.51
2022-10-23T05:33:18.622Z,61.52
2022-10-23T05:34:20.462Z,61.52
2022-10-23T05:35:22.268Z,61.57
2022-10-23T05:36:24.145Z,61.61
2022-10-23T05:37:25.951Z,61.64
2022-10-23T05:38:27.789Z,61.66
2022-10-23T05:39:29.633Z,61.68
2022-10-23T05:40:31.639Z,61.68
2022-10-23T05:41:33.530Z,61.71
2022-10-23T05:42:38.251Z,61.69
2022-10-23T05:43:39.359Z,61.44
2022-10-23T05:44:41.179Z,61.44
2022-10-23T05:45:43.014Z,61.71
2022-10-23T05:46:45.105Z,61.66
2022-10-23T05:47:46.942Z,61.62
2022-10-23T05:48:48.793Z,61.60
2022-10-23T05:49:50.642Z,61.54
2022-10-23T05:50:52.571Z,61.53
2022-10-23T05:51:54.427Z,61.55
2022-10-23T05:52:56.257Z,61.49
2022-10-23T05:53:58.091Z,61.47
2022-10-23T05:54:59.924Z,61.45
2022-10-23T05:56:01.735Z,61.40
2022-10-23T05:57:03.635Z,61.37
2022-10-23T05:58:05.688Z,61.35
2022-10-23T05:59:07.603Z,61.29
2022-10-23T06:00:09.927Z,61.26
2022-10-23T06:01:11.944Z,61.22
2022-10-23T06:02:13.988Z,61.19
2022-10-23T06:03:15.864Z,61.19
2022-10-23T06:04:17.721Z,61.21
2022-10-23T06:05:19.508Z,61.21
2022-10-23T06:06:21.376Z,61.25
2022-10-23T06:07:23.227Z,61.24
2022-10-23T06:08:25.053Z,61.27
2022-10-23T06:09:26.870Z,61.28
2022-10-23T06:10:28.769Z,61.33
2022-10-23T06:11:30.742Z,61.43
2022-10-23T06:12:32.634Z,61.49
2022-10-23T06:13:34.534Z,61.61
2022-10-23T06:14:36.365Z,61.71
2022-10-23T06:15:38.193Z,61.83
2022-10-23T06:16:40.163Z,61.97
2022-10-23T06:17:42.571Z,62.07
2022-10-23T06:18:44.583Z,62.17
2022-10-23T06:19:46.437Z,62.45
2022-10-23T06:20:48.362Z,62.45
2022-10-23T06:21:50.184Z,62.49
2022-10-23T06:22:52.075Z,62.43
2022-10-23T06:23:53.905Z,62.50
2022-10-23T06:24:55.730Z,62.64
2022-10-23T06:25:57.567Z,62.74
2022-10-23T06:26:59.600Z,62.87
2022-10-23T06:28:01.497Z,62.96
2022-10-23T06:29:03.334Z,63.02
2022-10-23T06:30:05.188Z,63.14
2022-10-23T06:31:07.009Z,63.23
2022-10-23T06:32:08.840Z,63.31
2022-10-23T06:33:10.672Z,63.38
2022-10-23T06:34:12.486Z,63.49
2022-10-23T06:35:14.303Z,63.56
2022-10-23T06:36:19.051Z,63.65
2022-10-23T06:37:20.887Z,63.75
2022-10-23T06:38:22.748Z,63.88
2022-10-23T06:39:28.435Z,63.96
2022-10-23T06:40:28.352Z,64.01
2022-10-23T06:41:30.258Z,64.11
2022-10-23T06:42:32.101Z,64.19
2022-10-23T06:43:33.905Z,64.24
2022-10-23T06:44:35.734Z,64.30
2022-10-23T06:45:37.547Z,64.35
2022-10-23T06:46:39.434Z,64.33
2022-10-23T06:47:41.565Z,64.40
2022-10-23T06:48:43.610Z,64.44
2022-10-23T06:49:45.405Z,64.44
2022-10-23T06:50:47.219Z,64.49
2022-10-23T06:51:49.054Z,64.50
2022-10-23T06:52:50.879Z,64.45
2022-10-23T06:53:52.703Z,64.41
2022-10-23T06:54:54.504Z,64.41
2022-10-23T06:55:56.305Z,64.42
2022-10-23T06:56:58.103Z,64.47
2022-10-23T06:57:59.915Z,64.45
2022-10-23T06:59:01.768Z,64.40
2022-10-23T07:00:03.632Z,64.42
2022-10-23T07:01:05.583Z,64.43
2022-10-23T07:02:07.353Z,64.45
2022-10-23T07:03:09.165Z,64.50
2022-10-23T07:04:11.015Z,64.55
2022-10-23T07:05:13.820Z,64.55
2022-10-23T07:06:16.054Z,64.51
2022-10-23T07:07:17.852Z,64.56
2022-10-23T07:08:19.667Z,64.62
2022-10-23T07:09:22.005Z,64.69
2022-10-23T07:10:23.831Z,64.72
2022-10-23T07:11:25.644Z,64.75
2022-10-23T07:12:27.459Z,64.76
2022-10-23T07:13:29.267Z,64.82
2022-10-23T07:14:31.136Z,64.92
2022-10-23T07:15:33.292Z,64.98
2022-10-23T07:16:35.142Z,65.07
2022-10-23T07:17:36.954Z,65.09
2022-10-23T07:18:38.796Z,65.10
2022-10-23T07:19:40.700Z,65.17
2022-10-23T07:20:42.553Z,65.23
2022-10-23T07:21:44.359Z,65.30
2022-10-23T07:22:46.228Z,65.39
2022-10-23T07:23:48.043Z,65.43
2022-10-23T07:24:49.902Z,65.47
2022-10-23T07:25:51.741Z,65.47
2022-10-23T07:26:53.904Z,65.43
2022-10-23T07:27:55.678Z,65.44
2022-10-23T07:28:57.521Z,65.45
2022-10-23T07:29:59.390Z,65.52
2022-10-23T07:31:01.261Z,65.56
2022-10-23T07:32:03.099Z,65.60
2022-10-23T07:33:04.939Z,65.63
2022-10-23T07:34:06.770Z,65.67
2022-10-23T07:35:08.703Z,65.65
2022-10-23T07:36:10.644Z,65.67
2022-10-23T07:37:12.494Z,65.66
2022-10-23T07:38:14.309Z,65.68
2022-10-23T07:39:16.132Z,65.71
2022-10-23T07:40:18.116Z,65.80
2022-10-23T07:41:19.936Z,65.78
2022-10-23T07:42:21.786Z,65.83
2022-10-23T07:43:23.617Z,65.89
2022-10-23T07:44:27.619Z,65.93
2022-10-23T07:45:29.307Z,65.97
2022-10-23T07:46:31.363Z,66.00
2022-10-23T07:47:33.187Z,66.01
2022-10-23T07:48:35.092Z,65.95
2022-10-23T07:49:36.922Z,65.89
2022-10-23T07:50:38.803Z,65.81
2022-10-23T07:51:40.743Z,65.73
2022-10-23T07:52:42.756Z,65.73
2022-10-23T07:53:44.776Z,65.63
2022-10-23T07:54:46.677Z,65.44
2022-10-23T07:55:48.559Z,65.33
2022-10-23T07:56:50.484Z,65.21
2022-10-23T07:57:52.287Z,65.13
2022-10-23T07:58:54.144Z,65.13
2022-10-23T07:59:55.974Z,65.08
2022-10-23T08:00:57.902Z,65.05
2022-10-23T08:01:59.977Z,65.06
2022-10-23T08:03:01.892Z,65.05
2022-10-23T08:04:03.721Z,64.95
2022-10-23T08:05:05.564Z,64.82
2022-10-23T08:06:08.121Z,64.68
2022-10-23T08:07:09.932Z,64.59
2022-10-23T08:08:11.754Z,64.38
2022-10-23T08:09:13.657Z,64.20
2022-10-23T08:10:15.500Z,64.09
2022-10-23T08:11:17.352Z,64.00
2022-10-23T08:12:19.153Z,63.88
2022-10-23T08:13:21.049Z,63.73
2022-10-23T08:14:22.886Z,63.61
2022-10-23T08:15:24.683Z,63.54
2022-10-23T08:16:26.557Z,63.42
2022-10-23T08:17:28.466Z,63.32
2022-10-23T08:18:30.257Z,63.24
2022-10-23T08:19:32.082Z,63.20
2022-10-23T08:20:33.920Z,63.14
2022-10-23T08:21:35.801Z,63.01
2022-10-23T08:22:37.692Z,62.74
2022-10-23T08:23:39.586Z,62.44
2022-10-23T08:24:41.439Z,62.14
2022-10-23T08:25:43.279Z,61.90
2022-10-23T08:26:45.298Z,61.68
2022-10-23T08:27:47.090Z,61.34
2022-10-23T08:28:48.928Z,61.10
2022-10-23T08:29:51.156Z,61.02
2022-10-23T08:30:52.979Z,61.02
2022-10-23T08:31:54.882Z,61.12
2022-10-23T08:32:56.950Z,61.07
2022-10-23T08:33:58.883Z,60.83
2022-10-23T08:35:02.878Z,60.61
2022-10-23T08:36:04.779Z,60.42
2022-10-23T08:37:06.609Z,60.29
2022-10-23T08:38:08.450Z,60.32
2022-10-23T08:39:10.307Z,60.26
2022-10-23T08:40:12.550Z,60.21
2022-10-23T08:41:14.389Z,60.27
2022-10-23T08:42:16.302Z,60.37
2022-10-23T08:43:18.147Z,60.40
2022-10-23T08:44:20.039Z,60.33
2022-10-23T08:45:21.909Z,60.25
2022-10-23T08:46:23.763Z,60.30
2022-10-23T08:47:25.704Z,60.37
2022-10-23T08:48:27.614Z,60.24
2022-10-23T08:49:29.466Z,60.27
2022-10-23T08:50:31.316Z,60.41
2022-10-23T08:51:33.183Z,60.48
2022-10-23T08:52:35.064Z,60.49
2022-10-23T08:53:36.923Z,60.49
2022-10-23T08:54:38.771Z,60.36
2022-10-23T08:55:41.159Z,60.13
2022-10-23T08:56:43.229Z,59.79
2022-10-23T08:57:45.095Z,59.62
2022-10-23T08:58:47.015Z,59.58
2022-10-23T08:59:48.915Z,59.59
2022-10-23T09:00:50.928Z,59.61
2022-10-23T09:01:52.947Z,59.65
2022-10-23T09:02:54.955Z,59.68
2022-10-23T09:03:56.924Z,59.69
2022-10-23T09:04:58.780Z,59.58
2022-10-23T09:06:00.620Z,59.55
2022-10-23T09:07:02.499Z,59.42
2022-10-23T09:08:04.376Z,59.37
2022-10-23T09:09:06.273Z,59.38
2022-10-23T09:10:08.620Z,59.44
2022-10-23T09:11:10.435Z,59.54
2022-10-23T09:12:12.301Z,59.70
2022-10-23T09:13:14.247Z,59.87
2022-10-23T09:14:16.156Z,59.96
2022-10-23T09:15:18.061Z,59.94
2022-10-23T09:16:20.065Z,59.78
2022-10-23T09:17:21.943Z,59.63
2022-10-23T09:18:23.961Z,59.67
2022-10-23T09:19:25.962Z,59.74
2022-10-23T09:20:27.841Z,59.89
2022-10-23T09:21:30.053Z,60.08
2022-10-23T09:22:31.920Z,60.27
2022-10-23T09:23:34.922Z,60.46
2022-10-23T09:24:36.815Z,60.64
2022-10-23T09:25:38.669Z,60.85
2022-10-23T09:26:41.643Z,61.13
2022-10-23T09:27:43.747Z,61.43
2022-10-23T09:28:45.880Z,61.77
2022-10-23T09:29:47.730Z,62.08
2022-10-23T09:30:49.694Z,62.35
2022-10-23T09:31:51.524Z,62.58
2022-10-23T09:32:53.397Z,62.89
2022-10-23T09:33:55.298Z,63.18
2022-10-23T09:34:57.210Z,63.46
2022-10-23T09:35:59.042Z,63.74
2022-10-23T09:37:01.002Z,63.95
2022-10-23T09:38:02.853Z,64.03
2022-10-23T09:39:04.756Z,64.04
2022-10-23T09:40:06.687Z,64.10
2022-10-23T09:41:08.533Z,64.09
2022-10-23T09:42:10.391Z,64.13
2022-10-23T09:43:12.212Z,64.18
2022-10-23T09:44:14.164Z,64.27
2022-10-23T09:45:16.074Z,64.75
2022-10-23T09:46:18.909Z,64.75
2022-10-23T09:47:20.736Z,64.58
2022-10-23T09:48:22.581Z,64.75
2022-10-23T09:49:24.546Z,64.84
2022-10-23T09:50:26.783Z,64.96
2022-10-23T09:51:28.619Z,65.04
2022-10-23T09:52:30.454Z,65.17
2022-10-23T09:53:32.292Z,65.27
2022-10-23T09:54:34.196Z,65.33
2022-10-23T09:55:36.020Z,65.43
2022-10-23T09:56:37.908Z,65.47
2022-10-23T09:57:39.679Z,65.52
2022-10-23T09:58:41.527Z,65.57
2022-10-23T09:59:43.444Z,65.59
2022-10-23T10:00:45.295Z,65.63
2022-10-23T10:01:47.198Z,65.64
2022-10-23T10:02:49.038Z,65.62
2022-10-23T10:03:50.908Z,65.62
2022-10-23T10:04:52.795Z,65.61
2022-10-23T10:05:54.720Z,65.63
2022-10-23T10:06:56.726Z,65.65
2022-10-23T10:07:58.591Z,65.68
2022-10-23T10:09:00.427Z,65.70
2022-10-23T10:10:02.319Z,65.93
2022-10-23T10:11:04.191Z,65.93
2022-10-23T10:12:06.008Z,65.79
2022-10-23T10:13:09.990Z,65.81
2022-10-23T10:14:11.495Z,65.71
2022-10-23T10:15:13.404Z,65.71
2022-10-23T10:16:16.279Z,65.89
2022-10-23T10:17:18.150Z,65.96
2022-10-23T10:18:19.994Z,66.02
2022-10-23T10:19:21.895Z,66.08
2022-10-23T10:20:23.790Z,66.05
2022-10-23T10:21:25.653Z,66.10
2022-10-23T10:22:27.501Z,66.12
2022-10-23T10:23:29.348Z,66.17
2022-10-23T10:24:31.183Z,66.16
2022-10-23T10:25:33.048Z,66.18
2022-10-23T10:26:34.952Z,66.20
2022-10-23T10:27:36.853Z,66.19
2022-10-23T10:28:38.700Z,66.24
2022-10-23T10:29:40.533Z,66.30
2022-10-23T10:30:42.433Z,66.31
2022-10-23T10:31:44.297Z,66.29
2022-10-23T10:32:46.151Z,66.26
2022-10-23T10:33:48.018Z,66.28
2022-10-23T10:34:49.873Z,66.29
2022-10-23T10:35:51.788Z,66.25
2022-10-23T10:36:53.707Z,66.22
2022-10-23T10:37:55.606Z,66.23
2022-10-23T10:38:57.461Z,66.24
2022-10-23T10:39:59.299Z,66.22
2022-10-23T10:41:01.687Z,66.27
2022-10-23T10:42:03.585Z,66.24
2022-10-23T10:43:05.443Z,66.26
2022-10-23T10:44:07.304Z,66.28
2022-10-23T10:45:09.197Z,66.23
2022-10-23T10:46:11.488Z,66.22
2022-10-23T10:47:14.949Z,66.19
2022-10-23T10:48:16.973Z,66.12
2022-10-23T10:49:18.836Z,66.12
2022-10-23T10:50:20.994Z,66.12
2022-10-23T10:51:22.892Z,66.05
2022-10-23T10:52:24.821Z,65.99
2022-10-23T10:53:26.736Z,65.94
2022-10-23T10:54:28.691Z,65.92
2022-10-23T10:55:30.511Z,65.89
2022-10-23T10:56:32.556Z,65.91
2022-10-23T10:57:34.432Z,65.83
2022-10-23T10:58:36.320Z,65.78
2022-10-23T10:59:38.157Z,65.76
2022-10-23T11:00:40.449Z,65.84
2022-10-23T11:01:43.371Z,65.79
2022-10-23T11:02:45.368Z,65.74
2022-10-23T11:03:47.327Z,65.63
2022-10-23T11:04:49.240Z,65.51
2022-10-23T11:05:51.119Z,65.40
2022-10-23T11:06:53.046Z,65.31
2022-10-23T11:07:55.978Z,65.16
2022-10-23T11:09:09.140Z,65.02
2022-10-23T11:10:01.655Z,64.87
2022-10-23T11:11:03.491Z,64.81
2022-10-23T11:12:05.434Z,64.70
2022-10-23T11:13:07.266Z,64.63
2022-10-23T11:14:09.150Z,64.68
2022-10-23T11:15:10.985Z,64.68
2022-10-23T11:16:13.312Z,64.71
2022-10-23T11:17:15.189Z,64.72
2022-10-23T11:18:17.042Z,64.69
2022-10-23T11:19:18.866Z,64.66
2022-10-23T11:20:21.227Z,64.64
2022-10-23T11:21:23.044Z,64.56
2022-10-23T11:22:24.924Z,64.37
2022-10-23T11:23:26.774Z,64.33
2022-10-23T11:24:28.627Z,64.35
2022-10-23T11:25:30.446Z,64.38
2022-10-23T11:26:32.373Z,64.36
2022-10-23T11:27:34.249Z,64.28
2022-10-23T11:28:36.147Z,64.26
2022-10-23T11:29:37.990Z,64.27
2022-10-23T11:30:39.784Z,64.20
2022-10-23T11:31:41.622Z,64.10
2022-10-23T11:32:43.608Z,64.06
2022-10-23T11:33:45.425Z,63.97
2022-10-23T11:34:47.245Z,63.90
2022-10-23T11:35:49.132Z,63.88
2022-10-23T11:36:50.946Z,63.84
2022-10-23T11:37:52.801Z,63.72
2022-10-23T11:38:54.892Z,63.46
2022-10-23T11:39:56.716Z,63.51
2022-10-23T11:40:58.515Z,63.61
2022-10-23T11:42:02.135Z,63.64
2022-10-23T11:43:04.031Z,63.57
2022-10-23T11:44:05.855Z,63.45
2022-10-23T11:45:07.654Z,63.45
2022-10-23T11:46:10.112Z,63.52
2022-10-23T11:47:11.986Z,63.56
2022-10-23T11:48:13.810Z,63.64
2022-10-23T11:49:15.661Z,63.67
2022-10-23T11:50:18.007Z,63.69
2022-10-23T11:51:19.832Z,63.61
2022-10-23T11:52:21.693Z,63.44
2022-10-23T11:53:23.833Z,63.29
2022-10-23T11:54:25.824Z,63.31
2022-10-23T11:55:29.060Z,63.24
2022-10-23T11:56:31.120Z,63.13
2022-10-23T11:57:32.928Z,63.09
2022-10-23T11:58:34.760Z,63.07
2022-10-23T11:59:36.591Z,63.09
2022-10-23T12:00:38.428Z,63.15
2022-10-23T12:01:40.358Z,63.07
2022-10-23T12:02:42.975Z,63.06
2022-10-23T12:03:45.216Z,63.01
2022-10-23T12:04:47.101Z,62.95
2022-10-23T12:05:48.984Z,63.00
2022-10-23T12:06:50.914Z,63.10
2022-10-23T12:07:52.792Z,63.15
2022-10-23T12:08:54.637Z,63.21
2022-10-23T12:09:56.547Z,63.23
2022-10-23T12:10:58.458Z,63.26
2022-10-23T12:12:00.270Z,63.21
2022-10-23T12:13:02.098Z,63.28
2022-10-23T12:14:04.051Z,63.41
2022-10-23T12:15:05.962Z,63.49
2022-10-23T12:16:08.584Z,63.44
2022-10-23T12:17:10.407Z,63.39
2022-10-23T12:18:12.238Z,63.41
2022-10-23T12:19:14.176Z,63.41
2022-10-23T12:20:16.145Z,63.39
2022-10-23T12:21:17.986Z,63.45
2022-10-23T12:22:19.851Z,63.50
2022-10-23T12:23:21.639Z,63.50
2022-10-23T12:24:23.556Z,63.54
2022-10-23T12:25:25.439Z,63.50
2022-10-23T12:26:27.318Z,63.47
2022-10-23T12:27:29.170Z,63.52
2022-10-23T12:28:31.032Z,63.59
2022-10-23T12:29:32.887Z,63.71
2022-10-23T12:30:34.875Z,63.74
2022-10-23T12:31:36.748Z,63.83
2022-10-23T12:32:38.594Z,63.90
2022-10-23T12:33:40.444Z,63.92
2022-10-23T12:34:42.433Z,63.92
2022-10-23T12:35:44.269Z,63.98
2022-10-23T12:36:46.095Z,64.03
2022-10-23T12:37:47.929Z,64.08
2022-10-23T12:38:49.767Z,64.16
2022-10-23T12:39:51.644Z,64.16
2022-10-23T12:40:53.514Z,64.24
2022-10-23T12:41:55.368Z,64.32
2022-10-23T12:42:57.184Z,64.78
2022-10-23T12:43:59.025Z,64.78
2022-10-23T12:45:00.893Z,64.42
2022-10-23T12:46:02.809Z,64.47
2022-10-23T12:47:04.599Z,64.55
2022-10-23T12:48:06.485Z,64.61
2022-10-23T12:49:08.358Z,64.58
2022-10-23T12:50:10.644Z,64.62
2022-10-23T12:51:12.478Z,64.62
2022-10-23T12:52:14.325Z,64.68
2022-10-23T12:53:16.142Z,64.76
2022-10-23T12:54:17.969Z,64.76
2022-10-23T12:55:19.874Z,64.75
2022-10-23T12:56:22.069Z,64.81
2022-10-23T12:57:23.916Z,64.89
2022-10-23T12:58:25.760Z,64.95
2022-10-23T12:59:27.584Z,64.95
2022-10-23T13:00:29.459Z,64.98
2022-10-23T13:01:31.590Z,64.95
2022-10-23T13:02:33.802Z,64.95
2022-10-23T13:03:35.632Z,64.94
2022-10-23T13:04:37.475Z,64.86
2022-10-23T13:05:39.378Z,64.81
2022-10-23T13:06:41.331Z,64.80
2022-10-23T13:07:43.375Z,64.77
2022-10-23T13:08:45.563Z,64.80
2022-10-23T13:09:47.427Z,64.83
2022-10-23T13:10:49.358Z,64.90
2022-10-23T13:11:51.436Z,64.99
2022-10-23T13:12:53.291Z,65.05
2022-10-23T13:13:55.153Z,64.82
2022-10-23T13:14:57.002Z,64.82
2022-10-23T13:15:58.916Z,64.91
2022-10-23T13:17:00.831Z,64.92
2022-10-23T13:18:02.773Z,64.99
2022-10-23T13:19:04.726Z,65.06
2022-10-23T13:20:06.843Z,65.15